sensor_id;sensor_type;location;lat;lon;timestamp;temperature;humidity
21176;DHT22;10746;50.178;8.186;2022-08-19T00:01:12;19.20;99.90
21176;DHT22;10746;50.178;8.186;2022-08-19T00:03:40;19.20;99.90
21176;DHT22;10746;50.178;8.186;2022-08-19T00:06:07;19.20;99.90
21176;DHT22;10746;50.178;8.186;2022-08-19T00:08:34;19.10;99.90
21176;DHT22;10746;50.178;8.186;2022-08-19T00:11:01;19.00;99.90
21176;DHT22;10746;50.178;8.186;2022-08-19T00:13:28;19.10;99.90
21176;DHT22;10746;50.178;8.186;2022-08-19T00:15:55;19.10;99.90
21176;DHT22;10746;50.178;8.186;2022-08-19T00:18:24;19.10;99.90
21176;DHT22;10746;50.178;8.186;2022-08-19T00:20:52;19.10;99.90
21176;DHT22;10746;50.178;8.186;2022-08-19T00:23:19;19.10;99.90
21176;DHT22;10746;50.178;8.186;2022-08-19T00:25:46;19.10;99.90
21176;DHT22;10746;50.178;8.186;2022-08-19T00:28:14;19.20;99.90
21176;DHT22;10746;50.178;8.186;2022-08-19T00:30:41;19.10;99.90
21176;DHT22;10746;50.178;8.186;2022-08-19T00:33:07;19.10;99.90
21176;DHT22;10746;50.178;8.186;2022-08-19T00:35:34;19.10;99.90
21176;DHT22;10746;50.178;8.186;2022-08-19T00:38:05;19.10;99.90
21176;DHT22;10746;50.178;8.186;2022-08-19T00:40:32;19.10;99.90
21176;DHT22;10746;50.178;8.186;2022-08-19T00:42:59;19.20;99.90
21176;DHT22;10746;50.178;8.186;2022-08-19T00:45:28;19.20;99.90
21176;DHT22;10746;50.178;8.186;2022-08-19T00:47:55;19.10;99.90
21176;DHT22;10746;50.178;8.186;2022-08-19T00:50:22;19.10;99.90
21176;DHT22;10746;50.178;8.186;2022-08-19T00:52:50;19.20;99.90
21176;DHT22;10746;50.178;8.186;2022-08-19T00:55:22;19.10;99.90
21176;DHT22;10746;50.178;8.186;2022-08-19T00:57:51;19.10;99.90
21176;DHT22;10746;50.178;8.186;2022-08-19T01:00:21;18.90;99.90
21176;DHT22;10746;50.178;8.186;2022-08-19T01:02:48;19.10;99.90
21176;DHT22;10746;50.178;8.186;2022-08-19T01:05:17;19.10;99.90
21176;DHT22;10746;50.178;8.186;2022-08-19T01:07:46;19.10;99.90
21176;DHT22;10746;50.178;8.186;2022-08-19T01:10:16;19.10;99.90
21176;DHT22;10746;50.178;8.186;2022-08-19T01:12:47;19.10;99.90
21176;DHT22;10746;50.178;8.186;2022-08-19T01:15:16;19.00;99.90
21176;DHT22;10746;50.178;8.186;2022-08-19T01:17:43;19.00;99.90
21176;DHT22;10746;50.178;8.186;2022-08-19T01:20:13;18.90;99.90
21176;DHT22;10746;50.178;8.186;2022-08-19T01:22:44;19.00;99.90
21176;DHT22;10746;50.178;8.186;2022-08-19T01:25:12;18.80;99.90
21176;DHT22;10746;50.178;8.186;2022-08-19T01:27:40;18.80;99.90
21176;DHT22;10746;50.178;8.186;2022-08-19T01:30:09;18.80;99.90
21176;DHT22;10746;50.178;8.186;2022-08-19T01:32:36;18.70;99.90
21176;DHT22;10746;50.178;8.186;2022-08-19T01:35:04;18.70;99.90
21176;DHT22;10746;50.178;8.186;2022-08-19T01:37:43;18.70;99.90
21176;DHT22;10746;50.178;8.186;2022-08-19T01:40:10;18.70;99.90
21176;DHT22;10746;50.178;8.186;2022-08-19T01:42:37;18.60;99.90
21176;DHT22;10746;50.178;8.186;2022-08-19T01:45:05;18.60;99.90
21176;DHT22;10746;50.178;8.186;2022-08-19T01:47:34;18.60;99.90
21176;DHT22;10746;50.178;8.186;2022-08-19T01:50:01;18.60;99.90
21176;DHT22;10746;50.178;8.186;2022-08-19T01:52:27;18.50;99.90
21176;DHT22;10746;50.178;8.186;2022-08-19T01:54:55;18.40;99.90
21176;DHT22;10746;50.178;8.186;2022-08-19T01:57:22;18.40;99.90
21176;DHT22;10746;50.178;8.186;2022-08-19T01:59:49;18.40;99.90
21176;DHT22;10746;50.178;8.186;2022-08-19T02:02:16;18.40;99.90
21176;DHT22;10746;50.178;8.186;2022-08-19T02:04:43;18.30;99.90
21176;DHT22;10746;50.178;8.186;2022-08-19T02:07:11;18.40;99.90
21176;DHT22;10746;50.178;8.186;2022-08-19T02:09:37;18.30;99.90
21176;DHT22;10746;50.178;8.186;2022-08-19T02:12:07;18.30;99.90
21176;DHT22;10746;50.178;8.186;2022-08-19T02:14:34;18.40;99.90
21176;DHT22;10746;50.178;8.186;2022-08-19T02:17:01;18.40;99.90
21176;DHT22;10746;50.178;8.186;2022-08-19T02:19:28;18.30;99.90
21176;DHT22;10746;50.178;8.186;2022-08-19T02:21:54;18.40;99.90
21176;DHT22;10746;50.178;8.186;2022-08-19T02:24:21;18.30;99.90
21176;DHT22;10746;50.178;8.186;2022-08-19T02:26:47;18.30;99.90
21176;DHT22;10746;50.178;8.186;2022-08-19T02:29:15;18.20;99.90
21176;DHT22;10746;50.178;8.186;2022-08-19T02:31:42;18.10;99.90
21176;DHT22;10746;50.178;8.186;2022-08-19T02:34:09;18.00;99.90
21176;DHT22;10746;50.178;8.186;2022-08-19T02:36:36;18.10;99.90
21176;DHT22;10746;50.178;8.186;2022-08-19T02:39:03;18.10;99.90
21176;DHT22;10746;50.178;8.186;2022-08-19T02:41:31;18.10;99.90
21176;DHT22;10746;50.178;8.186;2022-08-19T02:44:00;18.10;99.90
21176;DHT22;10746;50.178;8.186;2022-08-19T02:46:30;18.10;99.90
21176;DHT22;10746;50.178;8.186;2022-08-19T02:49:01;18.20;99.90
21176;DHT22;10746;50.178;8.186;2022-08-19T02:51:30;18.10;99.90
21176;DHT22;10746;50.178;8.186;2022-08-19T02:53:57;18.10;99.90
21176;DHT22;10746;50.178;8.186;2022-08-19T02:56:24;18.00;99.90
21176;DHT22;10746;50.178;8.186;2022-08-19T02:58:52;18.00;99.90
21176;DHT22;10746;50.178;8.186;2022-08-19T03:01:21;18.00;99.90
21176;DHT22;10746;50.178;8.186;2022-08-19T03:03:49;18.10;99.90
21176;DHT22;10746;50.178;8.186;2022-08-19T03:06:17;18.10;99.90
21176;DHT22;10746;50.178;8.186;2022-08-19T03:08:46;18.10;99.90
21176;DHT22;10746;50.178;8.186;2022-08-19T03:11:15;18.10;99.90
21176;DHT22;10746;50.178;8.186;2022-08-19T03:13:42;18.10;99.90
21176;DHT22;10746;50.178;8.186;2022-08-19T03:16:10;18.10;99.90
21176;DHT22;10746;50.178;8.186;2022-08-19T03:18:37;18.00;99.90
21176;DHT22;10746;50.178;8.186;2022-08-19T03:21:05;17.90;99.90
21176;DHT22;10746;50.178;8.186;2022-08-19T03:23:32;17.90;99.90
21176;DHT22;10746;50.178;8.186;2022-08-19T03:25:59;17.80;99.90
21176;DHT22;10746;50.178;8.186;2022-08-19T03:28:30;17.80;99.90
21176;DHT22;10746;50.178;8.186;2022-08-19T03:30:58;17.80;99.90
21176;DHT22;10746;50.178;8.186;2022-08-19T03:33:26;17.70;99.90
21176;DHT22;10746;50.178;8.186;2022-08-19T03:36:00;17.70;99.90
21176;DHT22;10746;50.178;8.186;2022-08-19T03:38:29;17.70;99.90
21176;DHT22;10746;50.178;8.186;2022-08-19T03:40:57;17.60;99.90
21176;DHT22;10746;50.178;8.186;2022-08-19T03:43:24;17.50;99.90
21176;DHT22;10746;50.178;8.186;2022-08-19T03:45:59;17.50;99.90
21176;DHT22;10746;50.178;8.186;2022-08-19T03:48:26;17.50;99.90
21176;DHT22;10746;50.178;8.186;2022-08-19T03:50:53;17.40;99.90
21176;DHT22;10746;50.178;8.186;2022-08-19T03:53:19;17.40;99.90
21176;DHT22;10746;50.178;8.186;2022-08-19T03:55:47;17.30;99.90
21176;DHT22;10746;50.178;8.186;2022-08-19T03:58:14;17.20;99.90
21176;DHT22;10746;50.178;8.186;2022-08-19T04:00:42;17.30;99.90
21176;DHT22;10746;50.178;8.186;2022-08-19T04:03:08;17.20;99.90
21176;DHT22;10746;50.178;8.186;2022-08-19T04:05:35;17.20;99.90
21176;DHT22;10746;50.178;8.186;2022-08-19T04:08:03;17.10;99.90
21176;DHT22;10746;50.178;8.186;2022-08-19T04:10:31;17.10;99.90
21176;DHT22;10746;50.178;8.186;2022-08-19T04:12:59;17.00;99.90
21176;DHT22;10746;50.178;8.186;2022-08-19T04:15:26;17.00;99.90
21176;DHT22;10746;50.178;8.186;2022-08-19T04:17:54;16.90;99.90
21176;DHT22;10746;50.178;8.186;2022-08-19T04:20:20;16.90;99.90
21176;DHT22;10746;50.178;8.186;2022-08-19T04:22:47;16.80;99.90
21176;DHT22;10746;50.178;8.186;2022-08-19T04:25:14;16.80;99.90
21176;DHT22;10746;50.178;8.186;2022-08-19T04:27:41;16.80;99.90
21176;DHT22;10746;50.178;8.186;2022-08-19T04:30:13;16.90;99.90
21176;DHT22;10746;50.178;8.186;2022-08-19T04:32:40;16.90;99.90
21176;DHT22;10746;50.178;8.186;2022-08-19T04:35:09;17.00;99.90
21176;DHT22;10746;50.178;8.186;2022-08-19T04:37:35;16.90;99.90
21176;DHT22;10746;50.178;8.186;2022-08-19T04:40:06;17.00;99.90
21176;DHT22;10746;50.178;8.186;2022-08-19T04:42:51;16.90;99.90
21176;DHT22;10746;50.178;8.186;2022-08-19T04:45:20;16.90;99.90
21176;DHT22;10746;50.178;8.186;2022-08-19T04:47:46;16.90;99.90
21176;DHT22;10746;50.178;8.186;2022-08-19T04:50:14;16.90;99.90
21176;DHT22;10746;50.178;8.186;2022-08-19T04:52:41;16.90;99.90
21176;DHT22;10746;50.178;8.186;2022-08-19T04:55:09;16.90;99.90
21176;DHT22;10746;50.178;8.186;2022-08-19T04:57:36;16.80;99.90
21176;DHT22;10746;50.178;8.186;2022-08-19T05:00:06;16.80;99.90
21176;DHT22;10746;50.178;8.186;2022-08-19T05:02:34;16.80;99.90
21176;DHT22;10746;50.178;8.186;2022-08-19T05:05:01;16.80;99.90
21176;DHT22;10746;50.178;8.186;2022-08-19T05:07:28;16.80;99.90
21176;DHT22;10746;50.178;8.186;2022-08-19T05:09:56;16.90;99.90
21176;DHT22;10746;50.178;8.186;2022-08-19T05:12:23;16.90;99.90
21176;DHT22;10746;50.178;8.186;2022-08-19T05:14:49;16.90;99.90
21176;DHT22;10746;50.178;8.186;2022-08-19T05:17:17;16.90;99.90
21176;DHT22;10746;50.178;8.186;2022-08-19T05:19:45;17.10;99.90
21176;DHT22;10746;50.178;8.186;2022-08-19T05:22:29;17.00;99.90
21176;DHT22;10746;50.178;8.186;2022-08-19T05:25:04;17.20;99.90
21176;DHT22;10746;50.178;8.186;2022-08-19T05:27:31;17.30;99.90
21176;DHT22;10746;50.178;8.186;2022-08-19T05:29:58;17.40;99.90
21176;DHT22;10746;50.178;8.186;2022-08-19T05:32:25;17.40;99.90
21176;DHT22;10746;50.178;8.186;2022-08-19T05:34:53;17.60;99.90
21176;DHT22;10746;50.178;8.186;2022-08-19T05:37:20;17.60;99.90
21176;DHT22;10746;50.178;8.186;2022-08-19T05:39:47;17.70;99.90
21176;DHT22;10746;50.178;8.186;2022-08-19T05:42:15;17.70;99.90
21176;DHT22;10746;50.178;8.186;2022-08-19T05:44:43;17.90;99.90
21176;DHT22;10746;50.178;8.186;2022-08-19T05:47:12;18.00;99.90
21176;DHT22;10746;50.178;8.186;2022-08-19T05:49:40;18.10;99.90
21176;DHT22;10746;50.178;8.186;2022-08-19T05:52:10;18.10;99.90
21176;DHT22;10746;50.178;8.186;2022-08-19T05:54:39;18.20;99.90
21176;DHT22;10746;50.178;8.186;2022-08-19T05:57:08;18.30;99.90
21176;DHT22;10746;50.178;8.186;2022-08-19T05:59:35;18.30;99.90
21176;DHT22;10746;50.178;8.186;2022-08-19T06:02:03;18.50;99.90
21176;DHT22;10746;50.178;8.186;2022-08-19T06:04:30;18.60;99.90
21176;DHT22;10746;50.178;8.186;2022-08-19T06:06:56;18.60;99.90
21176;DHT22;10746;50.178;8.186;2022-08-19T06:09:25;18.70;99.90
21176;DHT22;10746;50.178;8.186;2022-08-19T06:11:54;18.90;99.90
21176;DHT22;10746;50.178;8.186;2022-08-19T06:14:22;19.00;99.90
21176;DHT22;10746;50.178;8.186;2022-08-19T06:16:50;19.20;99.90
21176;DHT22;10746;50.178;8.186;2022-08-19T06:19:19;19.40;99.90
21176;DHT22;10746;50.178;8.186;2022-08-19T06:21:49;19.70;99.90
21176;DHT22;10746;50.178;8.186;2022-08-19T06:24:18;19.90;99.90
21176;DHT22;10746;50.178;8.186;2022-08-19T06:26:48;19.90;99.90
21176;DHT22;10746;50.178;8.186;2022-08-19T06:29:17;20.10;99.90
21176;DHT22;10746;50.178;8.186;2022-08-19T06:31:46;20.20;99.90
21176;DHT22;10746;50.178;8.186;2022-08-19T06:34:15;20.40;99.90
21176;DHT22;10746;50.178;8.186;2022-08-19T06:36:43;20.60;99.90
21176;DHT22;10746;50.178;8.186;2022-08-19T06:39:13;20.60;99.90
21176;DHT22;10746;50.178;8.186;2022-08-19T06:41:41;20.60;99.90
21176;DHT22;10746;50.178;8.186;2022-08-19T06:44:10;20.60;99.90
21176;DHT22;10746;50.178;8.186;2022-08-19T06:46:39;20.60;99.90
21176;DHT22;10746;50.178;8.186;2022-08-19T06:49:06;20.80;99.90
21176;DHT22;10746;50.178;8.186;2022-08-19T06:51:37;21.00;99.90
21176;DHT22;10746;50.178;8.186;2022-08-19T06:54:04;21.00;99.90
21176;DHT22;10746;50.178;8.186;2022-08-19T06:56:32;21.10;99.90
21176;DHT22;10746;50.178;8.186;2022-08-19T06:59:00;21.40;99.90
21176;DHT22;10746;50.178;8.186;2022-08-19T07:01:28;21.80;99.90
21176;DHT22;10746;50.178;8.186;2022-08-19T07:03:55;21.90;99.90
21176;DHT22;10746;50.178;8.186;2022-08-19T07:06:22;22.20;99.90
21176;DHT22;10746;50.178;8.186;2022-08-19T07:08:49;22.20;99.90
21176;DHT22;10746;50.178;8.186;2022-08-19T07:11:17;22.40;99.90
21176;DHT22;10746;50.178;8.186;2022-08-19T07:13:46;22.50;99.90
21176;DHT22;10746;50.178;8.186;2022-08-19T07:16:15;22.70;99.90
21176;DHT22;10746;50.178;8.186;2022-08-19T07:18:44;22.70;99.90
21176;DHT22;10746;50.178;8.186;2022-08-19T07:21:13;22.80;99.90
21176;DHT22;10746;50.178;8.186;2022-08-19T07:23:40;22.80;99.90
21176;DHT22;10746;50.178;8.186;2022-08-19T07:26:09;23.10;99.90
21176;DHT22;10746;50.178;8.186;2022-08-19T07:28:36;23.20;99.90
21176;DHT22;10746;50.178;8.186;2022-08-19T07:31:05;23.30;99.90
21176;DHT22;10746;50.178;8.186;2022-08-19T07:33:32;23.40;99.90
21176;DHT22;10746;50.178;8.186;2022-08-19T07:36:03;23.60;99.90
21176;DHT22;10746;50.178;8.186;2022-08-19T07:38:32;23.80;99.90
21176;DHT22;10746;50.178;8.186;2022-08-19T07:40:59;23.80;99.90
21176;DHT22;10746;50.178;8.186;2022-08-19T07:43:26;23.80;99.90
21176;DHT22;10746;50.178;8.186;2022-08-19T07:45:53;24.00;99.90
21176;DHT22;10746;50.178;8.186;2022-08-19T07:48:23;24.00;99.90
21176;DHT22;10746;50.178;8.186;2022-08-19T07:50:51;23.90;99.90
21176;DHT22;10746;50.178;8.186;2022-08-19T07:53:19;23.40;99.90
21176;DHT22;10746;50.178;8.186;2022-08-19T07:55:46;22.90;99.90
21176;DHT22;10746;50.178;8.186;2022-08-19T07:58:15;22.60;99.90
21176;DHT22;10746;50.178;8.186;2022-08-19T08:00:44;22.20;99.90
21176;DHT22;10746;50.178;8.186;2022-08-19T08:03:12;22.10;99.90
21176;DHT22;10746;50.178;8.186;2022-08-19T08:05:39;22.00;99.90
21176;DHT22;10746;50.178;8.186;2022-08-19T08:08:24;21.60;99.90
21176;DHT22;10746;50.178;8.186;2022-08-19T08:11:08;21.40;99.90
21176;DHT22;10746;50.178;8.186;2022-08-19T08:13:36;21.40;99.90
21176;DHT22;10746;50.178;8.186;2022-08-19T08:16:03;21.30;99.90
21176;DHT22;10746;50.178;8.186;2022-08-19T08:18:29;21.40;99.90
21176;DHT22;10746;50.178;8.186;2022-08-19T08:20:57;21.50;99.90
21176;DHT22;10746;50.178;8.186;2022-08-19T08:23:26;21.50;99.90
21176;DHT22;10746;50.178;8.186;2022-08-19T08:25:56;21.80;99.90
21176;DHT22;10746;50.178;8.186;2022-08-19T08:28:24;22.20;99.90
21176;DHT22;10746;50.178;8.186;2022-08-19T08:30:51;22.30;99.90
21176;DHT22;10746;50.178;8.186;2022-08-19T08:33:18;22.30;99.90
21176;DHT22;10746;50.178;8.186;2022-08-19T08:35:45;22.20;99.90
21176;DHT22;10746;50.178;8.186;2022-08-19T08:38:13;22.20;99.90
21176;DHT22;10746;50.178;8.186;2022-08-19T08:40:47;22.20;99.90
21176;DHT22;10746;50.178;8.186;2022-08-19T08:43:22;22.30;99.90
21176;DHT22;10746;50.178;8.186;2022-08-19T08:45:56;22.20;99.90
21176;DHT22;10746;50.178;8.186;2022-08-19T08:48:34;22.40;99.90
21176;DHT22;10746;50.178;8.186;2022-08-19T08:51:05;22.80;99.90
21176;DHT22;10746;50.178;8.186;2022-08-19T08:53:34;22.50;99.90
21176;DHT22;10746;50.178;8.186;2022-08-19T08:56:04;22.60;99.90
21176;DHT22;10746;50.178;8.186;2022-08-19T08:58:46;22.60;99.90
21176;DHT22;10746;50.178;8.186;2022-08-19T09:01:14;22.70;99.90
21176;DHT22;10746;50.178;8.186;2022-08-19T09:03:42;22.70;99.90
21176;DHT22;10746;50.178;8.186;2022-08-19T09:06:14;22.50;99.90
21176;DHT22;10746;50.178;8.186;2022-08-19T09:08:54;22.30;99.90
21176;DHT22;10746;50.178;8.186;2022-08-19T09:11:43;22.40;99.90
21176;DHT22;10746;50.178;8.186;2022-08-19T09:14:31;22.60;99.90
21176;DHT22;10746;50.178;8.186;2022-08-19T09:16:59;22.50;99.90
21176;DHT22;10746;50.178;8.186;2022-08-19T09:19:28;22.70;99.90
21176;DHT22;10746;50.178;8.186;2022-08-19T09:21:55;22.70;99.90
21176;DHT22;10746;50.178;8.186;2022-08-19T09:24:22;22.80;99.90
21176;DHT22;10746;50.178;8.186;2022-08-19T09:26:50;23.10;99.90
21176;DHT22;10746;50.178;8.186;2022-08-19T09:29:17;23.30;99.90
21176;DHT22;10746;50.178;8.186;2022-08-19T09:31:44;23.50;99.90
21176;DHT22;10746;50.178;8.186;2022-08-19T09:34:10;23.60;99.90
21176;DHT22;10746;50.178;8.186;2022-08-19T09:36:37;23.80;99.90
21176;DHT22;10746;50.178;8.186;2022-08-19T09:39:05;23.90;99.90
21176;DHT22;10746;50.178;8.186;2022-08-19T09:41:32;24.10;99.90
21176;DHT22;10746;50.178;8.186;2022-08-19T09:44:00;24.60;99.90
21176;DHT22;10746;50.178;8.186;2022-08-19T09:46:28;24.70;99.90
21176;DHT22;10746;50.178;8.186;2022-08-19T09:48:58;24.90;99.90
21176;DHT22;10746;50.178;8.186;2022-08-19T09:51:26;25.10;99.90
21176;DHT22;10746;50.178;8.186;2022-08-19T09:53:54;25.20;99.90
21176;DHT22;10746;50.178;8.186;2022-08-19T09:56:22;25.20;99.90
21176;DHT22;10746;50.178;8.186;2022-08-19T09:58:49;25.50;99.90
21176;DHT22;10746;50.178;8.186;2022-08-19T10:01:18;25.50;99.90
21176;DHT22;10746;50.178;8.186;2022-08-19T10:03:47;25.50;99.90
21176;DHT22;10746;50.178;8.186;2022-08-19T10:06:14;25.50;99.90
21176;DHT22;10746;50.178;8.186;2022-08-19T10:08:42;25.50;99.90
21176;DHT22;10746;50.178;8.186;2022-08-19T10:11:09;25.50;99.90
21176;DHT22;10746;50.178;8.186;2022-08-19T10:13:37;25.60;99.90
21176;DHT22;10746;50.178;8.186;2022-08-19T10:16:06;25.90;99.90
21176;DHT22;10746;50.178;8.186;2022-08-19T10:18:35;26.10;99.90
21176;DHT22;10746;50.178;8.186;2022-08-19T10:21:05;26.10;99.90
21176;DHT22;10746;50.178;8.186;2022-08-19T10:23:35;26.00;99.90
21176;DHT22;10746;50.178;8.186;2022-08-19T10:26:02;25.90;99.90
21176;DHT22;10746;50.178;8.186;2022-08-19T10:28:31;25.90;99.90
21176;DHT22;10746;50.178;8.186;2022-08-19T10:30:58;25.90;99.90
21176;DHT22;10746;50.178;8.186;2022-08-19T10:33:29;26.00;99.90
21176;DHT22;10746;50.178;8.186;2022-08-19T10:36:01;26.00;99.90
21176;DHT22;10746;50.178;8.186;2022-08-19T10:38:27;25.80;99.90
21176;DHT22;10746;50.178;8.186;2022-08-19T10:40:55;26.00;99.90
21176;DHT22;10746;50.178;8.186;2022-08-19T10:43:22;26.20;99.90
21176;DHT22;10746;50.178;8.186;2022-08-19T10:45:52;26.40;99.90
21176;DHT22;10746;50.178;8.186;2022-08-19T10:48:20;26.40;99.90
21176;DHT22;10746;50.178;8.186;2022-08-19T10:50:47;26.50;99.90
21176;DHT22;10746;50.178;8.186;2022-08-19T10:53:32;26.70;99.90
21176;DHT22;10746;50.178;8.186;2022-08-19T10:56:02;26.70;99.90
21176;DHT22;10746;50.178;8.186;2022-08-19T10:58:46;26.80;99.90
21176;DHT22;10746;50.178;8.186;2022-08-19T11:01:13;26.80;99.90
21176;DHT22;10746;50.178;8.186;2022-08-19T11:03:40;26.70;99.90
21176;DHT22;10746;50.178;8.186;2022-08-19T11:06:08;26.30;99.90
21176;DHT22;10746;50.178;8.186;2022-08-19T11:08:36;26.30;99.90
21176;DHT22;10746;50.178;8.186;2022-08-19T11:11:05;26.60;99.90
21176;DHT22;10746;50.178;8.186;2022-08-19T11:13:34;26.70;99.90
21176;DHT22;10746;50.178;8.186;2022-08-19T11:16:06;26.80;99.90
21176;DHT22;10746;50.178;8.186;2022-08-19T11:18:37;26.70;99.90
21176;DHT22;10746;50.178;8.186;2022-08-19T11:21:10;26.20;99.90
21176;DHT22;10746;50.178;8.186;2022-08-19T11:23:38;26.20;99.90
21176;DHT22;10746;50.178;8.186;2022-08-19T11:26:05;26.10;99.90
21176;DHT22;10746;50.178;8.186;2022-08-19T11:28:32;26.00;99.90
21176;DHT22;10746;50.178;8.186;2022-08-19T11:30:59;26.30;99.90
21176;DHT22;10746;50.178;8.186;2022-08-19T11:33:25;26.60;99.90
21176;DHT22;10746;50.178;8.186;2022-08-19T11:35:52;26.70;99.90
21176;DHT22;10746;50.178;8.186;2022-08-19T11:38:19;27.00;99.90
21176;DHT22;10746;50.178;8.186;2022-08-19T11:40:55;27.30;99.90
21176;DHT22;10746;50.178;8.186;2022-08-19T11:43:22;26.80;99.90
21176;DHT22;10746;50.178;8.186;2022-08-19T11:45:49;26.60;99.90
21176;DHT22;10746;50.178;8.186;2022-08-19T11:48:16;27.10;99.90
21176;DHT22;10746;50.178;8.186;2022-08-19T11:50:48;27.50;99.90
21176;DHT22;10746;50.178;8.186;2022-08-19T11:53:15;27.80;99.90
21176;DHT22;10746;50.178;8.186;2022-08-19T11:55:42;28.20;99.90
21176;DHT22;10746;50.178;8.186;2022-08-19T11:58:11;28.30;99.90
21176;DHT22;10746;50.178;8.186;2022-08-19T12:00:39;28.60;99.90
21176;DHT22;10746;50.178;8.186;2022-08-19T12:03:07;28.70;99.90
21176;DHT22;10746;50.178;8.186;2022-08-19T12:05:35;28.40;99.90
21176;DHT22;10746;50.178;8.186;2022-08-19T12:08:03;28.40;99.90
21176;DHT22;10746;50.178;8.186;2022-08-19T12:10:29;28.40;99.90
21176;DHT22;10746;50.178;8.186;2022-08-19T12:12:56;28.30;99.90
21176;DHT22;10746;50.178;8.186;2022-08-19T12:15:24;28.60;99.90
21176;DHT22;10746;50.178;8.186;2022-08-19T12:17:54;28.80;99.90
21176;DHT22;10746;50.178;8.186;2022-08-19T12:20:23;28.90;99.90
21176;DHT22;10746;50.178;8.186;2022-08-19T12:22:50;28.70;99.90
21176;DHT22;10746;50.178;8.186;2022-08-19T12:25:17;28.80;99.90
21176;DHT22;10746;50.178;8.186;2022-08-19T12:27:44;28.80;99.90
21176;DHT22;10746;50.178;8.186;2022-08-19T12:30:13;28.80;99.90
21176;DHT22;10746;50.178;8.186;2022-08-19T12:32:41;29.30;99.90
21176;DHT22;10746;50.178;8.186;2022-08-19T12:35:09;30.00;99.90
21176;DHT22;10746;50.178;8.186;2022-08-19T12:37:37;30.40;99.90
21176;DHT22;10746;50.178;8.186;2022-08-19T12:40:05;30.10;99.90
21176;DHT22;10746;50.178;8.186;2022-08-19T12:42:32;30.20;99.90
21176;DHT22;10746;50.178;8.186;2022-08-19T12:44:58;29.70;99.90
21176;DHT22;10746;50.178;8.186;2022-08-19T12:47:25;29.30;99.90
21176;DHT22;10746;50.178;8.186;2022-08-19T12:49:53;28.50;99.90
21176;DHT22;10746;50.178;8.186;2022-08-19T12:52:21;28.10;99.90
21176;DHT22;10746;50.178;8.186;2022-08-19T12:54:47;27.90;99.90
21176;DHT22;10746;50.178;8.186;2022-08-19T12:57:15;27.70;99.90
21176;DHT22;10746;50.178;8.186;2022-08-19T12:59:41;27.60;99.90
21176;DHT22;10746;50.178;8.186;2022-08-19T13:02:11;27.40;99.90
21176;DHT22;10746;50.178;8.186;2022-08-19T13:04:38;28.30;99.90
21176;DHT22;10746;50.178;8.186;2022-08-19T13:07:08;29.30;99.90
21176;DHT22;10746;50.178;8.186;2022-08-19T13:09:35;30.20;99.90
21176;DHT22;10746;50.178;8.186;2022-08-19T13:12:02;30.40;99.90
21176;DHT22;10746;50.178;8.186;2022-08-19T13:14:32;29.50;99.90
21176;DHT22;10746;50.178;8.186;2022-08-19T13:16:59;28.30;99.90
21176;DHT22;10746;50.178;8.186;2022-08-19T13:19:26;28.10;99.90
21176;DHT22;10746;50.178;8.186;2022-08-19T13:21:53;28.40;99.90
21176;DHT22;10746;50.178;8.186;2022-08-19T13:24:22;28.40;99.90
21176;DHT22;10746;50.178;8.186;2022-08-19T13:26:48;27.70;99.90
21176;DHT22;10746;50.178;8.186;2022-08-19T13:29:15;28.20;99.90
21176;DHT22;10746;50.178;8.186;2022-08-19T13:31:59;29.20;99.90
21176;DHT22;10746;50.178;8.186;2022-08-19T13:34:43;29.80;99.90
21176;DHT22;10746;50.178;8.186;2022-08-19T13:37:12;29.80;99.90
21176;DHT22;10746;50.178;8.186;2022-08-19T13:39:40;29.20;99.90
21176;DHT22;10746;50.178;8.186;2022-08-19T13:42:06;29.70;99.90
21176;DHT22;10746;50.178;8.186;2022-08-19T13:44:34;29.90;99.90
21176;DHT22;10746;50.178;8.186;2022-08-19T13:47:03;30.50;99.90
21176;DHT22;10746;50.178;8.186;2022-08-19T13:49:32;30.60;99.90
21176;DHT22;10746;50.178;8.186;2022-08-19T13:51:59;31.60;99.90
21176;DHT22;10746;50.178;8.186;2022-08-19T13:54:26;32.40;99.90
21176;DHT22;10746;50.178;8.186;2022-08-19T13:56:54;32.30;99.90
21176;DHT22;10746;50.178;8.186;2022-08-19T13:59:21;31.80;99.90
21176;DHT22;10746;50.178;8.186;2022-08-19T14:01:48;31.60;99.90
21176;DHT22;10746;50.178;8.186;2022-08-19T14:04:15;30.30;99.90
21176;DHT22;10746;50.178;8.186;2022-08-19T14:06:42;29.30;99.90
21176;DHT22;10746;50.178;8.186;2022-08-19T14:09:08;29.60;99.90
21176;DHT22;10746;50.178;8.186;2022-08-19T14:11:35;30.00;99.90
21176;DHT22;10746;50.178;8.186;2022-08-19T14:14:04;29.90;99.90
21176;DHT22;10746;50.178;8.186;2022-08-19T14:16:31;30.40;99.90
21176;DHT22;10746;50.178;8.186;2022-08-19T14:18:57;30.80;99.90
21176;DHT22;10746;50.178;8.186;2022-08-19T14:21:24;31.30;99.90
21176;DHT22;10746;50.178;8.186;2022-08-19T14:23:51;30.70;99.90
21176;DHT22;10746;50.178;8.186;2022-08-19T14:26:19;30.10;99.90
21176;DHT22;10746;50.178;8.186;2022-08-19T14:28:46;30.20;99.90
21176;DHT22;10746;50.178;8.186;2022-08-19T14:31:16;29.60;99.90
21176;DHT22;10746;50.178;8.186;2022-08-19T14:33:45;29.40;99.90
21176;DHT22;10746;50.178;8.186;2022-08-19T14:36:12;30.10;99.90
21176;DHT22;10746;50.178;8.186;2022-08-19T14:38:39;30.60;99.90
21176;DHT22;10746;50.178;8.186;2022-08-19T14:41:09;31.00;99.90
21176;DHT22;10746;50.178;8.186;2022-08-19T14:43:36;31.20;99.90
21176;DHT22;10746;50.178;8.186;2022-08-19T14:46:03;31.10;99.90
21176;DHT22;10746;50.178;8.186;2022-08-19T14:48:32;30.80;99.90
21176;DHT22;10746;50.178;8.186;2022-08-19T14:50:58;30.70;99.90
21176;DHT22;10746;50.178;8.186;2022-08-19T14:53:25;30.60;99.90
21176;DHT22;10746;50.178;8.186;2022-08-19T14:55:52;30.70;99.90
21176;DHT22;10746;50.178;8.186;2022-08-19T14:58:18;30.60;99.90
21176;DHT22;10746;50.178;8.186;2022-08-19T15:00:45;29.80;99.90
21176;DHT22;10746;50.178;8.186;2022-08-19T15:03:12;29.50;99.90
21176;DHT22;10746;50.178;8.186;2022-08-19T15:05:40;29.50;99.90
21176;DHT22;10746;50.178;8.186;2022-08-19T15:08:07;29.60;99.90
21176;DHT22;10746;50.178;8.186;2022-08-19T15:10:34;29.60;99.90
21176;DHT22;10746;50.178;8.186;2022-08-19T15:13:00;30.00;99.90
21176;DHT22;10746;50.178;8.186;2022-08-19T15:15:27;30.40;99.90
21176;DHT22;10746;50.178;8.186;2022-08-19T15:17:54;30.50;99.90
21176;DHT22;10746;50.178;8.186;2022-08-19T15:20:27;30.60;99.90
21176;DHT22;10746;50.178;8.186;2022-08-19T15:22:55;30.60;99.90
21176;DHT22;10746;50.178;8.186;2022-08-19T15:25:22;30.90;99.90
21176;DHT22;10746;50.178;8.186;2022-08-19T15:27:49;30.80;99.90
21176;DHT22;10746;50.178;8.186;2022-08-19T15:30:20;30.60;99.90
21176;DHT22;10746;50.178;8.186;2022-08-19T15:32:47;30.60;99.90
21176;DHT22;10746;50.178;8.186;2022-08-19T15:35:14;30.60;99.90
21176;DHT22;10746;50.178;8.186;2022-08-19T15:37:40;30.50;99.80